Mojave, CA

12:29 PM PST on March 03, 2015 (GMT -0800)
Tehachapi Municipal | Change Station
CLOSE
Current Station
Airport
Location: Tehachapi,
Elevation: 3999 ft
Nearby Weather Stations

Elev 3999 ft 35.13 °N, 118.44 °W | Updated 14 minutes ago

Clear
Clear
46 °F
Feels Like 40 °F
N
16
Wind Variable Wind from NW

Today
High -- | Low -- °F
--% Chance of Precip.
Yesterday
High -- | Low -- °F
Precip. -- in
6:19 AM 5:50 PM
Waxing Gibbous, 97% visible
Pressure 29.97 in
Visibility 9.0 miles
Clouds Mostly Cloudy 2700 ft
Windchill 40 °F
Dew Point 36 °F
Humidity 66%
Rainfall 0.00 in
Snow Depth Not available.
UV 4 out of 12
Pollen 8.60 out of 12
Air Quality Not available.
Flu Activity Not available.
METAR KTSP 032015Z AUTO 31014KT 9SM BKN027 08/02 A2997 RMK AO2

More Conditions Fewer Conditions

Pressure 29.97 in
Visibility 9.0 miles
Clouds Mostly Cloudy 2700 ft
Windchill 40 °F
Dew Point 36 °F
Humidity 66%
Rainfall 0.00 in
Snow Depth Not available.
UV 4 out of 12
Pollen 8.60 out of 12
Air Quality Not available.
Flu Activity Not available.
METAR KTSP 032015Z AUTO 31014KT 9SM BKN027 08/02 A2997 RMK AO2

More Conditions Fewer Conditions

10-Day Weather Forecast

Almanac

Astronomy

Mar. 03, 2015 Rise Set
Actual Time
Civil Twilight
Nautical Twilight
Astronomical Twilight
Moon
Length of Visible Light
Length of Day
Tomorrow will be .
, % of the Moon is Illuminated

Today's Extremes

State Highs State Lows

Community

WunderPhotos

Upload Photos

1,802,245 photos uploaded!

WunderBlogs® & News

Nearby

Air Quality

  Air Quality AQ Index Pollutant
Not available.

Snow Depth

Station Depth Elevation

Earthquake Activity

City Distance Mag. Time & Date
Minimum magnitude displayed is 2.5.

Coastal Water Temperatures

Place Temperature

Nearby Weather Stations